createdAt,value
2022-09-06T00:02:12.516Z,23.83
2022-09-06T00:04:40.314Z,23.72
2022-09-06T00:07:08.142Z,23.70
2022-09-06T00:09:36.288Z,23.71
2022-09-06T00:12:04.686Z,23.73
2022-09-06T00:14:32.536Z,23.74
2022-09-06T00:17:01.829Z,23.74
2022-09-06T00:19:29.636Z,23.73
2022-09-06T00:21:57.467Z,23.68
2022-09-06T00:24:25.423Z,23.68
2022-09-06T00:26:53.192Z,23.67
2022-09-06T00:29:21.040Z,23.64
2022-09-06T00:31:48.863Z,23.53
2022-09-06T00:34:18.068Z,23.43
2022-09-06T00:36:45.841Z,23.43
2022-09-06T00:39:13.693Z,23.46
2022-09-06T00:41:41.890Z,23.52
2022-09-06T00:44:09.944Z,23.57
2022-09-06T00:46:40.789Z,23.58
2022-09-06T00:49:12.497Z,23.60
2022-09-06T00:51:42.023Z,23.59
2022-09-06T00:54:10.979Z,23.57
2022-09-06T00:56:42.880Z,23.58
2022-09-06T00:59:10.825Z,23.61
2022-09-06T01:01:38.956Z,23.62
2022-09-06T01:04:07.394Z,23.64
2022-09-06T01:06:49.257Z,23.66
2022-09-06T01:09:28.600Z,23.66
2022-09-06T01:12:11.722Z,23.67
2022-09-06T01:15:01.273Z,23.60
2022-09-06T01:17:42.685Z,23.51
2022-09-06T01:20:36.351Z,23.46
2022-09-06T01:23:44.208Z,23.44
2022-09-06T01:26:40.129Z,23.42
2022-09-06T01:29:17.089Z,23.43
2022-09-06T01:31:49.837Z,23.43
2022-09-06T01:34:25.673Z,23.37
2022-09-06T01:37:13.180Z,23.36
2022-09-06T01:39:42.570Z,23.34
2022-09-06T01:42:14.555Z,23.35
2022-09-06T01:44:47.404Z,23.33
2022-09-06T01:47:26.910Z,23.28
2022-09-06T01:50:16.035Z,23.27
2022-09-06T01:52:57.567Z,23.27
2022-09-06T01:55:32.220Z,23.23
2022-09-06T01:58:16.564Z,23.26
2022-09-06T02:00:55.734Z,23.30
2022-09-06T02:03:31.413Z,23.34
2022-09-06T02:06:05.087Z,23.39
2022-09-06T02:08:38.233Z,23.41
2022-09-06T02:11:08.356Z,23.40
2022-09-06T02:13:39.781Z,23.37
2022-09-06T02:16:11.878Z,23.39
2022-09-06T02:18:44.141Z,23.41
2022-09-06T02:21:16.349Z,23.46
2022-09-06T02:23:45.953Z,23.47
2022-09-06T02:26:18.678Z,23.45
2022-09-06T02:28:47.006Z,23.39
2022-09-06T02:31:23.414Z,23.38
2022-09-06T02:33:53.025Z,23.37
2022-09-06T02:36:21.150Z,23.37
2022-09-06T02:38:49.258Z,23.37
2022-09-06T02:41:22.570Z,23.37
2022-09-06T02:43:50.991Z,23.36
2022-09-06T02:46:20.235Z,23.37
2022-09-06T02:48:48.118Z,23.35
2022-09-06T02:51:16.015Z,23.32
2022-09-06T02:53:44.133Z,23.30
2022-09-06T02:56:12.364Z,23.27
2022-09-06T02:58:40.174Z,23.24
2022-09-06T03:01:08.257Z,23.20
2022-09-06T03:03:37.506Z,23.03
2022-09-06T03:06:05.476Z,22.98
2022-09-06T03:08:34.253Z,22.99
2022-09-06T03:11:02.605Z,23.01
2022-09-06T03:13:30.830Z,23.07
2022-09-06T03:16:00.191Z,23.11
2022-09-06T03:18:29.633Z,23.16
2022-09-06T03:20:59.604Z,23.19
2022-09-06T03:23:29.272Z,23.05
2022-09-06T03:25:57.682Z,22.91
2022-09-06T03:28:25.638Z,22.91
2022-09-06T03:30:54.426Z,22.94
2022-09-06T03:33:22.712Z,22.98
2022-09-06T03:35:51.866Z,23.01
2022-09-06T03:38:21.622Z,23.02
2022-09-06T03:40:50.451Z,23.02
2022-09-06T03:43:19.052Z,23.05
2022-09-06T03:45:48.295Z,23.04
2022-09-06T03:48:17.012Z,23.03
2022-09-06T03:50:47.178Z,23.03
2022-09-06T03:53:16.292Z,23.02
2022-09-06T03:55:47.695Z,22.99
2022-09-06T03:58:16.803Z,22.94
2022-09-06T04:00:45.371Z,22.92
2022-09-06T04:03:14.036Z,22.90
2022-09-06T04:05:45.679Z,22.89
2022-09-06T04:08:13.692Z,22.89
2022-09-06T04:10:41.512Z,22.87
2022-09-06T04:13:10.744Z,22.89
2022-09-06T04:15:38.541Z,22.88
2022-09-06T04:18:09.255Z,22.86
2022-09-06T04:20:37.292Z,22.79
2022-09-06T04:23:05.262Z,22.78
2022-09-06T04:25:33.219Z,22.77
2022-09-06T04:28:02.334Z,22.79
2022-09-06T04:30:31.525Z,22.80
2022-09-06T04:32:59.370Z,22.83
2022-09-06T04:35:27.240Z,22.88
2022-09-06T04:37:55.093Z,22.92
2022-09-06T04:40:22.945Z,22.91
2022-09-06T04:42:50.808Z,22.93
2022-09-06T04:45:18.687Z,22.95
2022-09-06T04:47:48.153Z,22.97
2022-09-06T04:50:15.947Z,22.95
2022-09-06T04:52:43.821Z,22.97
2022-09-06T04:55:11.683Z,22.96
2022-09-06T04:57:43.746Z,22.96
2022-09-06T05:00:14.551Z,22.95
2022-09-06T05:02:42.597Z,22.89
2022-09-06T05:05:12.386Z,22.82
2022-09-06T05:07:40.209Z,22.71
2022-09-06T05:10:08.386Z,22.68
2022-09-06T05:12:39.772Z,22.68
2022-09-06T05:15:10.948Z,22.60
2022-09-06T05:17:38.764Z,22.56
2022-09-06T05:20:07.355Z,22.50
2022-09-06T05:22:36.508Z,22.44
2022-09-06T05:25:04.532Z,22.40
2022-09-06T05:27:32.313Z,22.39
2022-09-06T05:30:00.138Z,22.41
2022-09-06T05:32:27.994Z,22.43
2022-09-06T05:34:55.845Z,22.43
2022-09-06T05:37:23.738Z,22.42
2022-09-06T05:39:53.139Z,22.41
2022-09-06T05:42:21.049Z,22.39
2022-09-06T05:44:48.871Z,22.41
2022-09-06T05:47:16.664Z,22.40
2022-09-06T05:49:44.498Z,22.41
2022-09-06T05:52:12.296Z,22.43
2022-09-06T05:54:40.089Z,22.43
2022-09-06T05:57:09.212Z,22.44
2022-09-06T05:59:37.240Z,22.46
2022-09-06T06:02:07.515Z,22.51
2022-09-06T06:04:35.846Z,22.52
2022-09-06T06:07:03.629Z,22.52
2022-09-06T06:09:31.578Z,22.45
2022-09-06T06:11:59.343Z,22.42
2022-09-06T06:14:28.495Z,22.38
2022-09-06T06:16:58.072Z,22.29
2022-09-06T06:19:26.666Z,22.27
2022-09-06T06:21:55.883Z,22.32
2022-09-06T06:24:23.739Z,22.39
2022-09-06T06:26:51.577Z,22.48
2022-09-06T06:29:19.598Z,22.56
2022-09-06T06:31:48.814Z,22.59
2022-09-06T06:34:18.212Z,22.63
2022-09-06T06:36:46.066Z,22.70
2022-09-06T06:39:14.090Z,22.85
2022-09-06T06:41:41.928Z,23.08
2022-09-06T06:44:09.748Z,23.32
2022-09-06T06:46:39.321Z,23.59
2022-09-06T06:49:08.547Z,23.89
2022-09-06T06:51:37.995Z,24.03
2022-09-06T06:54:06.745Z,24.28
2022-09-06T06:56:36.436Z,24.54
2022-09-06T06:59:06.921Z,24.76
2022-09-06T07:01:36.104Z,25.01
2022-09-06T07:04:04.612Z,25.24
2022-09-06T07:12:24.961Z,25.89
2022-09-06T07:14:53.100Z,25.95
2022-09-06T07:17:20.903Z,26.08
2022-09-06T07:22:37.940Z,26.50
2022-09-06T07:25:06.705Z,26.79
2022-09-06T07:27:50.498Z,27.06
2022-09-06T07:30:19.905Z,27.35
2022-09-06T07:32:47.941Z,27.53
2022-09-06T07:35:15.981Z,27.66
2022-09-06T07:37:45.185Z,27.91
2022-09-06T07:40:13.054Z,28.12
2022-09-06T07:42:40.933Z,28.17
2022-09-06T07:45:10.025Z,28.18
2022-09-06T07:53:20.500Z,28.60
2022-09-06T07:55:53.942Z,28.81
2022-09-06T07:58:22.859Z,28.83
2022-09-06T08:00:50.722Z,28.84
2022-09-06T08:03:18.600Z,28.96
2022-09-06T08:11:29.948Z,29.36
2022-09-06T08:13:59.072Z,29.46
2022-09-06T08:16:29.220Z,29.37
2022-09-06T08:18:58.481Z,29.39
2022-09-06T08:21:28.066Z,29.69
2022-09-06T08:24:00.173Z,29.85
2022-09-06T08:26:28.969Z,29.88
2022-09-06T08:29:00.023Z,29.88
2022-09-06T08:31:29.517Z,29.95
2022-09-06T08:33:58.191Z,30.08
2022-09-06T08:36:27.396Z,30.12
2022-09-06T08:38:55.448Z,30.10
2022-09-06T08:41:27.944Z,30.17
2022-09-06T08:46:53.750Z,30.53
2022-09-06T08:49:22.307Z,30.62
2022-09-06T08:52:07.277Z,30.42
2022-09-06T08:54:39.606Z,30.34
2022-09-06T08:57:16.935Z,30.52
2022-09-06T08:59:44.768Z,30.72
2022-09-06T09:02:15.169Z,30.80
2022-09-06T09:04:46.724Z,30.62
2022-09-06T09:07:31.197Z,30.71
2022-09-06T09:10:01.202Z,30.91
2022-09-06T09:12:33.856Z,31.08
2022-09-06T09:15:08.812Z,31.12
2022-09-06T09:17:37.598Z,31.09
2022-09-06T09:20:08.405Z,31.26
2022-09-06T09:22:36.592Z,31.38
2022-09-06T09:25:07.896Z,31.56
2022-09-06T09:27:37.980Z,31.69
2022-09-06T09:32:56.666Z,31.70
2022-09-06T09:35:32.584Z,31.78
2022-09-06T09:38:11.740Z,31.76
2022-09-06T09:40:42.899Z,31.68
2022-09-06T09:43:17.297Z,31.88
2022-09-06T09:45:45.664Z,32.20
2022-09-06T09:48:25.116Z,32.12
2022-09-06T09:50:52.967Z,32.13
2022-09-06T09:53:22.617Z,32.32
2022-09-06T09:55:55.776Z,32.48
2022-09-06T09:58:33.412Z,32.69
2022-09-06T10:01:13.561Z,32.90
2022-09-06T10:09:21.833Z,33.25
2022-09-06T10:11:55.482Z,33.43
2022-09-06T10:14:30.962Z,33.48
2022-09-06T10:17:00.881Z,33.51
2022-09-06T10:19:41.963Z,33.45
2022-09-06T10:22:30.044Z,33.53
2022-09-06T10:25:26.059Z,33.53
2022-09-06T10:28:12.597Z,33.53
2022-09-06T10:30:53.276Z,33.37
2022-09-06T10:33:32.260Z,33.26
2022-09-06T10:36:03.056Z,33.44
2022-09-06T10:38:42.138Z,33.65
2022-09-06T10:41:43.442Z,33.77
2022-09-06T10:44:27.591Z,33.87
2022-09-06T10:47:09.550Z,33.98
2022-09-06T10:49:39.111Z,34.06
2022-09-06T10:52:10.564Z,34.15
2022-09-06T10:54:42.230Z,34.25
2022-09-06T11:00:12.912Z,34.41
2022-09-06T11:05:42.962Z,34.60
2022-09-06T11:11:12.343Z,34.78
2022-09-06T11:13:40.239Z,34.78
2022-09-06T11:16:11.366Z,34.64
2022-09-06T11:18:47.276Z,34.21
2022-09-06T11:21:43.773Z,34.10
2022-09-06T11:24:17.004Z,34.38
2022-09-06T11:26:47.024Z,34.63
2022-09-06T11:29:26.661Z,34.73
2022-09-06T11:34:54.900Z,34.34
2022-09-06T11:37:28.349Z,34.25
2022-09-06T11:40:29.402Z,34.26
2022-09-06T11:43:16.694Z,34.13
2022-09-06T11:45:47.797Z,34.23
2022-09-06T11:48:50.772Z,34.25
2022-09-06T11:51:36.258Z,34.46
2022-09-06T11:54:21.987Z,34.64
2022-09-06T11:56:58.927Z,34.76
2022-09-06T11:59:35.536Z,34.84
2022-09-06T12:02:05.621Z,34.74
2022-09-06T12:05:16.069Z,34.45
2022-09-06T12:08:24.577Z,34.25
2022-09-06T12:10:59.892Z,34.32
2022-09-06T12:13:48.496Z,34.32
2022-09-06T12:16:18.457Z,34.45
2022-09-06T12:19:10.512Z,34.36
2022-09-06T12:21:52.115Z,34.50
2022-09-06T12:24:56.748Z,34.57
2022-09-06T12:27:27.031Z,34.69
2022-09-06T12:29:59.466Z,34.73
2022-09-06T12:32:36.593Z,34.69
2022-09-06T12:37:57.013Z,34.70
2022-09-06T12:40:28.453Z,34.75
2022-09-06T12:42:56.793Z,34.78
2022-09-06T12:45:27.565Z,34.73
2022-09-06T12:48:06.388Z,34.59
2022-09-06T12:50:34.276Z,34.62
2022-09-06T12:53:04.200Z,34.63
2022-09-06T12:55:36.549Z,34.69
2022-09-06T12:58:06.531Z,34.78
2022-09-06T13:00:37.914Z,34.89
2022-09-06T13:03:25.018Z,34.78
2022-09-06T13:05:55.713Z,34.54
2022-09-06T13:08:30.542Z,34.57
2022-09-06T13:11:00.537Z,34.64
2022-09-06T13:13:28.770Z,34.63
2022-09-06T13:15:57.327Z,34.81
2022-09-06T13:18:33.054Z,35.02
2022-09-06T13:21:03.144Z,35.12
2022-09-06T13:23:32.730Z,35.15
2022-09-06T13:26:02.233Z,35.20
2022-09-06T13:28:32.076Z,35.26
2022-09-06T13:31:05.277Z,35.36
2022-09-06T13:33:34.049Z,35.41
2022-09-06T13:36:17.596Z,35.45
2022-09-06T13:38:47.049Z,35.48
2022-09-06T13:41:37.465Z,35.44
2022-09-06T13:44:07.970Z,35.54
2022-09-06T13:46:37.267Z,35.51
2022-09-06T13:49:06.137Z,35.40
2022-09-06T13:51:35.431Z,35.45
2022-09-06T13:54:07.876Z,35.42
2022-09-06T13:56:37.691Z,35.38
2022-09-06T13:59:05.699Z,35.38
2022-09-06T14:01:34.453Z,35.44
2022-09-06T14:04:03.534Z,35.62
2022-09-06T14:06:36.083Z,35.77
2022-09-06T14:09:07.731Z,35.82
2022-09-06T14:11:37.939Z,35.80
2022-09-06T14:14:06.077Z,35.85
2022-09-06T14:16:34.997Z,35.84
2022-09-06T14:19:03.137Z,35.84
2022-09-06T14:21:31.080Z,35.85
2022-09-06T14:24:03.885Z,35.84
2022-09-06T14:26:33.308Z,35.89
2022-09-06T14:29:02.828Z,35.99
2022-09-06T14:31:32.505Z,35.85
2022-09-06T14:34:02.072Z,35.77
2022-09-06T14:36:32.385Z,35.88
2022-09-06T14:39:01.490Z,36.02
2022-09-06T14:41:29.599Z,35.94
2022-09-06T14:43:58.829Z,35.79
2022-09-06T14:46:29.895Z,35.79
2022-09-06T14:48:59.551Z,35.84
2022-09-06T14:51:27.635Z,35.88
2022-09-06T14:53:57.310Z,35.95
2022-09-06T14:56:27.135Z,35.94
2022-09-06T14:58:57.971Z,35.90
2022-09-06T15:01:30.402Z,35.72
2022-09-06T15:04:03.280Z,35.67
2022-09-06T15:06:34.715Z,35.61
2022-09-06T15:09:02.753Z,35.47
2022-09-06T15:11:34.754Z,35.44
2022-09-06T15:14:04.016Z,35.37
2022-09-06T15:16:34.332Z,35.35
2022-09-06T15:19:02.942Z,35.24
2022-09-06T15:21:32.053Z,35.24
2022-09-06T15:24:00.197Z,35.25
2022-09-06T15:26:28.150Z,35.22
2022-09-06T15:28:56.283Z,35.29
2022-09-06T15:31:24.337Z,35.27
2022-09-06T15:33:53.946Z,35.12
2022-09-06T15:36:22.023Z,34.98
2022-09-06T15:38:50.912Z,34.90
2022-09-06T15:41:21.062Z,34.94
2022-09-06T15:43:51.087Z,34.81
2022-09-06T15:46:22.204Z,34.70
2022-09-06T15:48:53.614Z,34.74
2022-09-06T15:51:22.913Z,34.82
2022-09-06T15:53:50.829Z,34.95
2022-09-06T15:56:19.785Z,34.92
2022-09-06T15:58:48.010Z,34.93
2022-09-06T16:01:17.735Z,34.96
2022-09-06T16:03:47.494Z,35.03
2022-09-06T16:06:26.726Z,35.09
2022-09-06T16:08:59.743Z,35.00
2022-09-06T16:11:29.136Z,34.90
2022-09-06T16:13:57.637Z,34.79
2022-09-06T16:16:25.803Z,34.51
2022-09-06T16:18:53.901Z,34.30
2022-09-06T16:21:24.285Z,34.09
2022-09-06T16:23:54.597Z,33.90
2022-09-06T16:26:25.738Z,33.82
2022-09-06T16:28:54.381Z,33.80
2022-09-06T16:31:23.093Z,33.85
2022-09-06T16:33:53.871Z,33.89
2022-09-06T16:36:22.775Z,33.93
2022-09-06T16:38:51.077Z,33.97
2022-09-06T16:41:21.964Z,33.86
2022-09-06T16:43:52.363Z,33.71
2022-09-06T16:46:21.106Z,33.51
2022-09-06T16:48:52.404Z,33.39
2022-09-06T16:51:22.193Z,33.30
2022-09-06T16:53:50.954Z,33.21
2022-09-06T16:56:21.586Z,33.19
2022-09-06T16:58:53.228Z,33.14
2022-09-06T17:01:21.953Z,33.14
2022-09-06T17:03:50.280Z,33.10
2022-09-06T17:06:19.182Z,33.02
2022-09-06T17:08:47.584Z,32.97
2022-09-06T17:11:17.917Z,32.82
2022-09-06T17:13:49.895Z,32.75
2022-09-06T17:16:37.465Z,32.65
2022-09-06T17:19:07.011Z,32.58
2022-09-06T17:21:35.566Z,32.58
2022-09-06T17:24:05.630Z,32.53
2022-09-06T17:26:35.021Z,32.49
2022-09-06T17:29:03.273Z,32.44
2022-09-06T17:31:33.357Z,32.39
2022-09-06T17:34:01.818Z,32.30
2022-09-06T17:36:32.270Z,32.23
2022-09-06T17:39:04.967Z,32.17
2022-09-06T17:41:38.885Z,32.13
2022-09-06T17:44:09.811Z,32.06
2022-09-06T17:46:51.891Z,31.97
2022-09-06T17:49:26.149Z,31.88
2022-09-06T17:51:54.354Z,31.80
2022-09-06T17:54:22.263Z,31.71
2022-09-06T17:56:50.120Z,31.60
2022-09-06T17:59:18.019Z,31.46
2022-09-06T18:01:47.374Z,31.37
2022-09-06T18:04:16.176Z,31.24
2022-09-06T18:06:46.739Z,31.13
2022-09-06T18:09:17.855Z,31.01
2022-09-06T18:11:47.082Z,30.87
2022-09-06T18:14:17.847Z,30.78
2022-09-06T18:16:49.465Z,30.68
2022-09-06T18:19:18.799Z,30.61
2022-09-06T18:21:49.004Z,30.55
2022-09-06T18:24:17.052Z,30.49
2022-09-06T18:26:45.116Z,30.43
2022-09-06T18:29:14.963Z,30.36
2022-09-06T18:31:44.418Z,30.28
2022-09-06T18:34:13.782Z,30.20
2022-09-06T18:36:42.311Z,30.14
2022-09-06T18:39:11.301Z,30.08
2022-09-06T18:41:56.668Z,30.01
2022-09-06T18:44:24.703Z,29.92
2022-09-06T18:46:55.780Z,29.82
2022-09-06T18:49:26.117Z,29.72
2022-09-06T18:51:54.550Z,29.63
2022-09-06T18:54:23.098Z,29.52
2022-09-06T18:56:51.100Z,29.42
2022-09-06T18:59:19.356Z,29.31
2022-09-06T19:01:47.270Z,29.22
2022-09-06T19:04:15.435Z,29.12
2022-09-06T19:06:45.823Z,29.03
2022-09-06T19:09:15.733Z,28.93
2022-09-06T19:11:45.596Z,28.82
2022-09-06T19:14:14.397Z,28.72
2022-09-06T19:16:43.931Z,28.61
2022-09-06T19:19:13.437Z,28.54
2022-09-06T19:21:42.524Z,28.47
2022-09-06T19:24:14.608Z,28.44
2022-09-06T19:26:44.630Z,28.40
2022-09-06T19:29:15.888Z,28.37
2022-09-06T19:31:44.351Z,28.33
2022-09-06T19:34:15.331Z,28.30
2022-09-06T19:36:44.388Z,28.22
2022-09-06T19:39:15.396Z,28.20
2022-09-06T19:41:45.152Z,28.16
2022-09-06T19:44:13.825Z,28.11
2022-09-06T19:46:45.651Z,28.06
2022-09-06T19:49:14.567Z,28.01
2022-09-06T19:51:43.912Z,27.96
2022-09-06T19:54:15.553Z,27.91
2022-09-06T19:56:44.254Z,27.84
2022-09-06T19:59:13.410Z,27.77
2022-09-06T20:01:43.198Z,27.69
2022-09-06T20:04:12.859Z,27.61
2022-09-06T20:06:41.511Z,27.54
2022-09-06T20:09:10.762Z,27.47
2022-09-06T20:11:41.690Z,27.39
2022-09-06T20:14:09.986Z,27.32
2022-09-06T20:16:41.413Z,27.25
2022-09-06T20:19:14.492Z,27.19
2022-09-06T20:21:42.957Z,27.12
2022-09-06T20:24:11.085Z,27.07
2022-09-06T20:26:40.437Z,26.99
2022-09-06T20:29:08.593Z,26.96
2022-09-06T20:31:38.184Z,26.94
2022-09-06T20:34:07.412Z,26.91
2022-09-06T20:36:35.291Z,26.91
2022-09-06T20:39:03.305Z,26.90
2022-09-06T20:41:31.307Z,26.87
2022-09-06T20:44:01.234Z,26.71
2022-09-06T20:46:31.059Z,26.52
2022-09-06T20:49:03.644Z,26.47
2022-09-06T20:51:32.327Z,26.48
2022-09-06T20:54:01.533Z,26.50
2022-09-06T20:56:31.963Z,26.53
2022-09-06T20:59:02.603Z,26.53
2022-09-06T21:01:33.455Z,26.53
2022-09-06T21:04:03.305Z,26.52
2022-09-06T21:06:33.769Z,26.45
2022-09-06T21:09:02.132Z,26.40
2022-09-06T21:11:30.065Z,26.36
2022-09-06T21:13:59.099Z,26.31
2022-09-06T21:16:30.359Z,26.26
2022-09-06T21:19:00.563Z,26.20
2022-09-06T21:21:30.150Z,26.15
2022-09-06T21:23:58.033Z,26.12
2022-09-06T21:26:26.509Z,26.04
2022-09-06T21:28:54.394Z,25.95
2022-09-06T21:31:24.324Z,25.91
2022-09-06T21:33:55.257Z,25.90
2022-09-06T21:36:24.770Z,25.90
2022-09-06T21:38:55.421Z,25.91
2022-09-06T21:41:24.483Z,25.97
2022-09-06T21:43:53.768Z,25.98
2022-09-06T21:46:23.140Z,25.97
2022-09-06T21:48:54.011Z,25.97
2022-09-06T21:51:23.980Z,25.99
2022-09-06T21:53:52.977Z,26.01
2022-09-06T21:56:23.823Z,26.03
2022-09-06T21:58:52.703Z,26.08
2022-09-06T22:01:20.806Z,26.14
2022-09-06T22:03:48.893Z,26.17
2022-09-06T22:06:20.053Z,26.18
2022-09-06T22:08:48.661Z,26.15
2022-09-06T22:11:18.726Z,26.11
2022-09-06T22:13:47.926Z,26.06
2022-09-06T22:16:18.486Z,26.05
2022-09-06T22:18:47.740Z,26.03
2022-09-06T22:21:20.319Z,26.03
2022-09-06T22:23:52.194Z,26.01
2022-09-06T22:26:21.043Z,25.98
2022-09-06T22:28:49.400Z,25.98
2022-09-06T22:31:17.356Z,25.94
2022-09-06T22:33:45.326Z,25.88
2022-09-06T22:36:13.213Z,25.86
2022-09-06T22:38:42.477Z,25.87
2022-09-06T22:41:10.573Z,25.89
2022-09-06T22:43:38.421Z,25.93
2022-09-06T22:46:08.445Z,25.97
2022-09-06T22:48:37.102Z,25.96
2022-09-06T22:51:07.179Z,25.97
2022-09-06T22:53:35.484Z,25.94
2022-09-06T22:56:05.434Z,25.92
2022-09-06T22:58:34.588Z,25.92
2022-09-06T23:01:08.079Z,25.93
2022-09-06T23:03:36.851Z,25.94
2022-09-06T23:06:05.296Z,25.95
2022-09-06T23:08:34.625Z,25.95
2022-09-06T23:11:07.909Z,25.95
2022-09-06T23:13:36.144Z,25.92
2022-09-06T23:16:05.826Z,25.92
2022-09-06T23:18:33.931Z,25.90
2022-09-06T23:21:06.472Z,25.84
2022-09-06T23:23:34.854Z,25.81
2022-09-06T23:26:09.587Z,25.78
2022-09-06T23:28:38.154Z,25.72
2022-09-06T23:31:07.265Z,25.47
2022-09-06T23:33:37.387Z,25.30
2022-09-06T23:36:06.187Z,25.14
2022-09-06T23:38:34.716Z,24.96
2022-09-06T23:41:02.876Z,24.64
2022-09-06T23:43:32.191Z,24.32
2022-09-06T23:46:00.249Z,24.17
2022-09-06T23:48:28.296Z,24.03
2022-09-06T23:50:56.169Z,23.89
2022-09-06T23:53:24.255Z,23.91
2022-09-06T23:55:52.189Z,23.86
2022-09-06T23:58:20.450Z,23.82
